• Join FlightAware (Why Join?)
  • Login
  • US Flag 
07:16PM EDT


 

Airport Tracker/Info


-or-


 

Live Flight TrackerFlight Track Log ✈ UAL5911 ✈ 26-Apr-2013 ✈ KORD - KPIA

Flight Track Log - Related Links

Times and Time Zones

All times are in EDT time to prevent confusion due to time zone crossing. See the UAL5911 flight status page for this flight to view local times or setup timezone preferences in your user account.

Time Position Orientation Groundspeed Altitude Reporting Facility
EDT Latitude Longitude Course Direction KTS MPH feet Rate Location/Type
03:01PM 41.9667 -87.9500 228° Southwest 172 198 2,400  Level Chicago TRACON
03:02PM 41.9333 -88.0000 228° Southwest 209 241 4,400 960 Climbing Chicago TRACON
03:04PM 41.8900 -88.1161 243° Southwest 218 251 5,000 180 Climbing Chicago Center
03:05PM 41.8789 -88.2017 260° West 235 270 5,000 1,140 Level Chicago Center
03:06PM 41.8975 -88.2922 285° West 259 298 7,400 2,220 Climbing Chicago Center
03:07PM 41.9272 -88.3811 294° West 263 303 9,700 2,160 Climbing Chicago Center
03:08PM 41.9422 -88.5039 279° West 280 322 11,900 1,620 Climbing Chicago Center
03:09PM 41.9350 -88.6167 265° West 316 364 13,100 1,320 Climbing Chicago Center
03:10PM 41.9006 -88.7278 247° West 327 376 14,700 1,320 Climbing Chicago Center
03:11PM 41.8653 -88.8422 248° West 333 383 15,900 600 Climbing Chicago Center
03:12PM 41.8133 -88.9583 239° Southwest 373 429 16,000  Climbing Chicago Center
03:13PM 41.7350 -89.0931 232° Southwest 388 447 16,000  Level Chicago Center
03:14PM 41.6586 -89.1931 224° Southwest 387 445 16,000  Level Chicago Center
03:15PM 41.5833 -89.2975 226° Southwest 391 450 16,000 -60 Level Chicago Center
03:16PM 41.5036 -89.3786 217° Southwest 399 459 15,900  Descending Chicago Center
03:17PM 41.3758 -89.4308 197° South 399 459 16,000 -300 Climbing Chicago Center
03:18PM 41.2692 -89.4692 195° South 399 459 15,300 -1,260 Descending Chicago Center
03:19PM 41.1678 -89.5078 196° South 383 441 13,400 -1,860 Descending Chicago Center
03:20PM 41.0706 -89.5436 196° South 367 422 11,500 -1,260 Descending Chicago Center
03:21PM 40.9883 -89.5739 196° South 328 377 10,900 -1,260 Descending Chicago Center
03:22PM 40.9200 -89.6000 196° South 286 329 9,000 -2,580 Descending Chicago Center
03:23PM 40.8461 -89.6350 200° South 253 291 5,600 -2,880 Descending Chicago Center
03:24PM 40.7878 -89.6233 171° South 232 267 3,100 -2,460 Descending Chicago Center